Time;durP1;ratioP1;P1;durP2;ratioP2;P2;SDS_P1;SDS_P2;PMS_P1;PMS_P2;Temp;Humidity;BMP_temperature;BMP_pressure;BME280_temperature;BME280_humidity;BME280_pressure;Samples;Min_cycle;Max_cycle;Signal;HPM_P1;HPM_P2
2024/03/30 00:00:33;;;;;;;62.08;15.45;;;;;;;;;;5013032;28;20508;-73
2024/03/30 00:03:36;;;;;;;48.65;13.90;;;;;;;;;;5013442;28;20405;-73
2024/03/30 00:06:41;;;;;;;52.60;14.25;;;;;;;;;;5013496;28;20057;-73
2024/03/30 00:09:49;;;;;;;52.80;15.88;;;16.30;91.10;;;;;;5013081;28;20057;-73
2024/03/30 00:12:56;;;;;;;51.97;15.20;;;;;;;;;;5013003;28;20069;-73
2024/03/30 00:16:07;;;;;;;53.92;12.88;;;16.30;91.20;;;;;;5012858;28;20049;-73
2024/03/30 00:19:13;;;;;;;;;;;16.40;91.30;;;;;;5001374;28;20049;-73
2024/03/30 00:22:17;;;;;;;45.67;12.82;;;;;;;;;;5012871;28;20309;-73
2024/03/30 00:25:23;;;;;;;44.53;10.45;;;16.20;89.70;;;;;;5013030;28;20069;-73
2024/03/30 00:28:27;;;;;;;49.03;11.93;;;16.30;90.50;;;;;;5000459;28;20041;-73
2024/03/30 00:31:32;;;;;;;44.33;12.52;;;;;;;;;;5000787;28;20053;-73
2024/03/30 00:34:36;;;;;;;37.25;10.60;;;;;;;;;;5012743;28;20048;-73
2024/03/30 00:37:40;;;;;;;38.47;10.20;;;;;;;;;;5012626;28;20044;-73
2024/03/30 00:40:44;;;;;;;44.17;10.70;;;;;;;;;;5000482;28;20056;-72
2024/03/30 00:43:49;;;;;;;49.05;10.32;;;;;;;;;;5012345;28;20088;-72
2024/03/30 00:46:53;;;;;;;43.05;9.63;;;;;;;;;;5000580;28;20057;-72
2024/03/30 00:50:00;;;;;;;34.03;7.20;;;;;;;;;;5011635;28;20048;-72
2024/03/30 00:53:04;;;;;;;42.63;8.35;;;;;;;;;;5011283;28;20057;-72
2024/03/30 00:56:09;;;;;;;34.83;8.50;;;;;;;;;;5012290;28;20410;-72
2024/03/30 00:59:13;;;;;;;39.90;10.32;;;;;;;;;;5012371;28;20052;-72
2024/03/30 01:02:18;;;;;;;42.47;10.88;;;;;;;;;;5000179;28;20040;-72
2024/03/30 01:05:22;;;;;;;32.70;9.57;;;;;;;;;;5012310;28;20516;-72
2024/03/30 01:08:26;;;;;;;47.00;10.05;;;;;;;;;;5011885;28;20537;-71
2024/03/30 01:11:30;;;;;;;44.10;10.30;;;;;;;;;;5012183;28;20045;-72
2024/03/30 01:14:39;;;;;;;32.33;8.43;;;;;;;;;;4999761;28;20053;-72
2024/03/30 01:17:43;;;;;;;36.63;7.35;;;;;;;;;;5011832;28;20057;-72
2024/03/30 01:20:51;;;;;;;24.85;6.32;;;;;;;;;;4999806;28;20045;-72
2024/03/30 01:23:56;;;;;;;28.83;5.80;;;;;;;;;;4999379;28;20053;-72
2024/03/30 01:27:03;;;;;;;29.35;5.40;;;16.80;84.30;;;;;;5011910;28;20052;-71
2024/03/30 01:30:10;;;;;;;32.67;6.15;;;16.90;84.00;;;;;;5011619;28;20382;-72
2024/03/30 01:33:16;;;;;;;28.33;5.75;;;;;;;;;;4999963;28;20060;-72
2024/03/30 01:36:22;;;;;;;32.35;6.00;;;16.30;83.90;;;;;;5011826;28;20057;-73
2024/03/30 01:39:27;;;;;;;26.00;5.38;;;;;;;;;;5011664;28;20041;-72
2024/03/30 01:42:31;;;;;;;30.25;6.00;;;;;;;;;;4999290;28;20067;-72
2024/03/30 01:45:41;;;;;;;24.73;5.82;;;16.90;84.00;;;;;;4999559;28;20041;-72
2024/03/30 01:48:46;;;;;;;19.30;4.57;;;;;;;;;;5011254;28;20675;-73
2024/03/30 01:51:50;;;;;;;24.30;4.55;;;;;;;;;;5011410;28;20048;-73
2024/03/30 01:54:55;;;;;;;26.95;4.32;;;;;;;;;;5011539;28;20068;-73
2024/03/30 01:58:02;;;;;;;23.65;5.05;;;16.80;84.40;;;;;;5011418;28;20048;-73
2024/03/30 02:01:07;;;;;;;41.05;8.30;;;;;;;;;;5011536;28;20052;-73
2024/03/30 02:04:11;;;;;;;41.28;10.20;;;;;;;;;;5011245;28;20049;-71
2024/03/30 02:07:16;;;;;;;37.00;9.55;;;;;;;;;;5011118;28;20088;-71
2024/03/30 02:10:21;;;;;;;46.78;9.40;;;;;;;;;;5011507;28;20045;-72
2024/03/30 02:13:25;;;;;;;38.60;10.68;;;;;;;;;;4999033;28;20053;-72
2024/03/30 02:16:29;;;;;;;43.92;9.23;;;;;;;;;;4999243;28;20394;-72
2024/03/30 02:19:42;;;;;;;53.92;10.73;;;16.70;88.80;;;;;;5011309;28;20061;-72
2024/03/30 02:22:53;;;;;;;46.42;9.88;;;16.60;88.70;;;;;;4999014;28;20512;-72
2024/03/30 02:25:59;;;;;;;43.65;10.02;;;16.50;89.00;;;;;;5011209;28;20056;-72
2024/03/30 02:29:05;;;;;;;38.67;9.93;;;16.50;89.40;;;;;;5011034;28;20053;-72
2024/03/30 02:32:10;;;;;;;42.65;9.82;;;16.40;89.40;;;;;;5010857;28;20414;-72
2024/03/30 02:35:14;;;;;;;53.47;10.73;;;;;;;;;;4998918;28;20073;-72
2024/03/30 02:38:19;;;;;;;48.40;9.77;;;;;;;;;;4999109;28;20117;-72
2024/03/30 02:41:23;;;;;;;53.33;10.05;;;;;;;;;;5011773;28;20053;-72
2024/03/30 02:44:27;;;;;;;44.22;9.98;;;;;;;;;;5011120;28;20517;-72
2024/03/30 02:47:32;;;;;;;35.75;9.43;;;;;;;;;;5011261;28;20053;-72
2024/03/30 02:50:38;;;;;;;46.70;10.98;;;;;;;;;;5011281;28;20041;-72
2024/03/30 02:53:43;;;;;;;48.60;10.23;;;;;;;;;;5011060;28;20061;-71
2024/03/30 02:56:47;;;;;;;41.45;10.55;;;;;;;;;;5011152;28;20375;-71
2024/03/30 02:59:52;;;;;;;31.05;8.90;;;;;;;;;;5011033;28;20076;-72
2024/03/30 03:02:56;;;;;;;44.25;9.85;;;;;;;;;;5010801;28;20057;-74
2024/03/30 03:06:03;;;;;;;49.25;9.90;;;;;;;;;;4998789;28;20049;-71
2024/03/30 03:09:07;;;;;;;49.38;10.93;;;;;;;;;;5010662;28;20049;-71
2024/03/30 03:12:11;;;;;;;48.60;10.63;;;;;;;;;;5010891;28;20072;-71
2024/03/30 03:15:16;;;;;;;40.47;10.40;;;;;;;;;;5010870;28;20060;-72
2024/03/30 03:18:20;;;;;;;36.70;9.38;;;;;;;;;;5010851;28;20524;-73
2024/03/30 03:21:24;;;;;;;35.20;9.57;;;;;;;;;;5012258;28;20390;-73
2024/03/30 03:24:29;;;;;;;50.03;10.25;;;;;;;;;;5014318;28;20045;-71
2024/03/30 03:27:33;;;;;;;43.08;10.15;;;;;;;;;;5014107;28;20582;-72
2024/03/30 03:30:37;;;;;;;48.97;10.40;;;;;;;;;;5014151;28;20061;-71
2024/03/30 03:33:41;;;;;;;47.63;9.65;;;;;;;;;;5013644;28;20465;-72
2024/03/30 03:36:46;;;;;;;41.40;10.63;;;;;;;;;;5013917;28;20052;-72
2024/03/30 03:39:50;;;;;;;39.20;9.13;;;;;;;;;;5014051;28;20053;-71
2024/03/30 03:42:55;;;;;;;47.10;9.25;;;;;;;;;;5013948;28;20057;-72
2024/03/30 03:45:59;;;;;;;37.45;8.95;;;;;;;;;;5013018;28;20056;-72
2024/03/30 03:49:04;;;;;;;36.28;10.05;;;;;;;;;;5013561;28;20113;-72
2024/03/30 03:52:08;;;;;;;41.92;10.63;;;;;;;;;;5001772;28;20053;-72
2024/03/30 03:55:15;;;;;;;39.35;9.65;;;;;;;;;;5013585;28;20055;-72
2024/03/30 03:58:19;;;;;;;45.65;10.13;;;;;;;;;;5001164;28;20140;-72
2024/03/30 04:01:23;;;;;;;49.42;11.80;;;;;;;;;;5013471;28;20647;-71
2024/03/30 04:04:28;;;;;;;48.03;9.25;;;;;;;;;;5013108;28;20191;-71
2024/03/30 04:07:32;;;;;;;39.20;9.98;;;;;;;;;;5013400;28;20505;-72
2024/03/30 04:10:36;;;;;;;41.22;10.40;;;;;;;;;;5001573;28;20045;-71
2024/03/30 04:13:41;;;;;;;49.65;11.07;;;;;;;;;;5012937;28;20052;-71
2024/03/30 04:16:45;;;;;;;42.33;10.07;;;;;;;;;;5001213;28;20044;-72
2024/03/30 04:19:49;;;;;;;43.92;10.10;;;;;;;;;;5013238;28;20049;-72
2024/03/30 04:22:54;;;;;;;43.30;10.55;;;;;;;;;;5012944;28;20492;-72
2024/03/30 04:26:08;;;;;;;57.38;11.73;;;15.30;92.30;;;;;;5001078;28;20048;-72
2024/03/30 04:29:12;;;;;;;51.85;10.30;;;;;;;;;;5012885;28;20037;-72
2024/03/30 04:32:16;;;;;;;42.67;9.57;;;;;;;;;;5011951;28;20394;-72
2024/03/30 04:35:20;;;;;;;37.85;9.63;;;;;;;;;;5011851;28;20049;-72
2024/03/30 04:38:25;;;;;;;53.88;10.70;;;;;;;;;;5012783;28;20053;-71
2024/03/30 04:41:29;;;;;;;48.75;10.32;;;;;;;;;;5012826;28;20049;-72
2024/03/30 04:44:34;;;;;;;35.28;10.05;;;;;;;;;;5012578;28;20193;-72
2024/03/30 04:47:38;;;;;;;56.55;11.23;;;;;;;;;;5012191;28;20040;-72
2024/03/30 04:50:43;;;;;;;51.15;11.25;;;;;;;;;;5012496;28;20049;-72
2024/03/30 04:53:47;;;;;;;42.38;9.85;;;;;;;;;;5000331;28;20068;-71
2024/03/30 04:56:51;;;;;;;44.25;10.55;;;;;;;;;;5012457;28;20049;-72
2024/03/30 04:59:55;;;;;;;56.28;10.02;;;;;;;;;;5012639;28;20068;-72
2024/03/30 05:03:00;;;;;;;60.50;10.75;;;;;;;;;;5012517;28;20053;-72
2024/03/30 05:06:07;;;;;;;50.13;10.93;;;15.30;92.50;;;;;;5012381;28;20052;-72
2024/03/30 05:09:11;;;;;;;51.05;10.18;;;;;;;;;;5000259;28;20393;-71
2024/03/30 05:12:16;;;;;;;54.20;11.10;;;;;;;;;;5012374;28;20076;-71
2024/03/30 05:15:22;;;;;;;54.40;11.25;;;;;;;;;;5012015;28;20503;-72
2024/03/30 05:18:27;;;;;;;47.00;10.45;;;;;;;;;;5012029;28;20057;-73
2024/03/30 05:21:32;;;;;;;61.95;11.15;;;;;;;;;;5012210;28;20052;-73
2024/03/30 05:24:36;;;;;;;62.30;10.63;;;;;;;;;;4999942;28;20404;-73
2024/03/30 05:27:40;;;;;;;37.38;10.40;;;;;;;;;;5011782;28;20109;-73
2024/03/30 05:30:47;;;;;;;46.97;10.38;;;15.50;92.20;;;;;;5011979;28;20057;-73
2024/03/30 05:33:52;;;;;;;51.10;11.85;;;;;;;;;;4999413;28;20060;-73
2024/03/30 05:36:56;;;;;;;47.83;11.32;;;;;;;;;;5011905;28;20044;-73
2024/03/30 05:40:00;;;;;;;41.65;11.57;;;;;;;;;;5011843;28;20069;-73
2024/03/30 05:43:05;;;;;;;39.20;11.02;;;;;;;;;;5011014;28;20061;-73
2024/03/30 05:46:09;;;;;;;48.17;11.00;;;;;;;;;;5011744;28;20052;-73
2024/03/30 05:49:14;;;;;;;39.83;9.70;;;;;;;;;;5011938;28;20064;-73
2024/03/30 05:52:18;;;;;;;42.38;9.52;;;;;;;;;;5011483;28;20602;-72
2024/03/30 05:55:22;;;;;;;53.35;9.90;;;;;;;;;;5011769;28;20117;-73
2024/03/30 05:58:27;;;;;;;46.70;9.43;;;;;;;;;;5011390;28;20069;-73
2024/03/30 06:01:31;;;;;;;38.13;9.07;;;;;;;;;;5011490;28;20045;-73
2024/03/30 06:04:35;;;;;;;51.45;10.45;;;;;;;;;;5011322;28;20036;-73
2024/03/30 06:07:40;;;;;;;53.10;10.18;;;16.90;91.60;;;;;;4988291;28;20061;-73
2024/03/30 06:10:45;;;;;;;46.20;9.23;;;;;;;;;;5011094;28;20041;-73
2024/03/30 06:13:49;;;;;;;43.17;10.35;;;;;;;;;;5011381;28;20061;-73
2024/03/30 06:16:54;;;;;;;53.63;9.70;;;;;;;;;;5011042;28;20044;-73
2024/03/30 06:20:00;;;;;;;51.42;10.35;;;;;;;;;;5011331;28;20049;-73
2024/03/30 06:23:04;;;;;;;57.95;9.60;;;;;;;;;;5011274;28;20658;-73
2024/03/30 06:26:08;;;;;;;39.78;7.53;;;;;;;;;;4999024;28;20056;-73
2024/03/30 06:29:13;;;;;;;48.33;9.95;;;;;;;;;;5011080;28;20041;-73
2024/03/30 06:32:17;;;;;;;53.13;9.85;;;;;;;;;;5011316;28;20049;-72
2024/03/30 06:35:21;;;;;;;67.07;9.82;;;;;;;;;;5011005;28;20065;-73
2024/03/30 06:38:26;;;;;;;55.15;10.25;;;;;;;;;;5011091;28;20044;-72
2024/03/30 06:44:54;;;;;;;52.35;9.07;;;;;;;;;;5011173;28;20061;-73
2024/03/30 06:47:58;;;;;;;59.17;10.55;;;;;;;;;;5011075;28;20500;-73
2024/03/30 06:51:02;;;;;;;44.28;9.02;;;;;;;;;;5011007;28;20053;-73
2024/03/30 06:54:07;;;;;;;47.67;10.15;;;;;;;;;;5010779;28;20052;-73
2024/03/30 06:57:11;;;;;;;62.33;9.38;;;;;;;;;;5014113;28;20121;-68
2024/03/30 07:00:19;;;;;;;45.28;9.77;;;;;;;;;;5014455;28;20121;-68
2024/03/30 07:03:23;;;;;;;55.13;9.15;;;;;;;;;;5014292;28;20049;-68
2024/03/30 07:06:28;;;;;;;40.33;8.63;;;;;;;;;;5002336;28;20049;-68
2024/03/30 07:09:33;;;;;;;57.72;9.55;;;;;;;;;;5002420;28;20048;-68
2024/03/30 07:12:38;;;;;;;53.92;9.25;;;;;;;;;;4991292;28;20516;-68
2024/03/30 07:15:42;;;;;;;45.55;8.80;;;;;;;;;;5002351;28;20500;-69
2024/03/30 07:18:46;;;;;;;51.88;8.55;;;;;;;;;;5014502;28;20042;-69
2024/03/30 07:21:51;;;;;;;40.28;7.93;;;;;;;;;;5013364;28;20505;-69
2024/03/30 07:24:55;;;;;;;43.08;7.60;;;;;;;;;;5014158;28;20041;-69
2024/03/30 07:27:59;;;;;;;45.90;7.50;;;;;;;;;;5014500;28;20053;-69
2024/03/30 07:31:06;;;;;;;54.17;8.98;;;20.00;80.10;;;;;;5014314;28;20048;-69
2024/03/30 07:34:10;;;;;;;58.95;9.02;;;;;;;;;;5013922;28;20077;-68
2024/03/30 07:37:14;;;;;;;46.28;7.22;;;20.10;77.60;;;;;;5013751;28;20045;-67
2024/03/30 07:40:20;;;;;;;45.03;9.02;;;;;;;;;;5013875;28;20137;-69
2024/03/30 07:43:25;;;;;;;51.53;7.78;;;;;;;;;;5013506;28;20057;-70
2024/03/30 07:46:29;;;;;;;42.90;7.13;;;;;;;;;;5014073;28;20049;-66
2024/03/30 07:49:33;;;;;;;55.55;8.10;;;;;;;;;;5013797;28;20117;-69
2024/03/30 07:52:38;;;;;;;52.85;8.48;;;;;;;;;;5013351;28;20053;-67
2024/03/30 07:55:46;;;;;;;52.97;6.88;;;;;;;;;;5001534;28;20048;-68
2024/03/30 07:58:51;;;;;;;47.78;7.65;;;;;;;;;;5001088;28;20044;-67
2024/03/30 08:01:55;;;;;;;51.75;7.38;;;;;;;;;;5013228;28;20390;-67
2024/03/30 08:05:00;;;;;;;67.78;7.57;;;;;;;;;;5013157;28;20045;-69
2024/03/30 08:08:05;;;;;;;64.97;7.38;;;21.70;65.80;;;;;;5013339;28;20053;-69
2024/03/30 08:11:10;;;;;;;45.47;8.70;;;;;;;;;;5013428;28;20057;-68
2024/03/30 08:14:16;;;;;;;55.40;8.85;;;;;;;;;;5012906;28;20057;-68
2024/03/30 08:17:20;;;;;;;49.25;12.45;;;;;;;;;;5012853;28;20048;-69
2024/03/30 08:20:24;;;;;;;49.10;14.00;;;22.40;78.30;;;;;;5001103;28;20053;-68
2024/03/30 08:23:29;;;;;;;71.88;16.65;;;;;;;;;;5001237;28;20064;-68
2024/03/30 08:26:36;;;;;;;63.47;15.98;;;21.90;79.40;;;;;;5012982;28;20045;-67
2024/03/30 08:29:40;;;;;;;42.33;11.23;;;;;;;;;;5012886;28;20049;-72
2024/03/30 08:32:46;;;;;;;34.88;9.50;;;;;;;;;;5013234;28;20438;-71
2024/03/30 08:35:54;;;;;;;44.30;11.15;;;22.80;78.90;;;;;;5012961;28;20064;-70
2024/03/30 08:38:58;;;;;;;53.88;12.70;;;;;;;;;;5012987;28;20048;-71
2024/03/30 08:42:02;;;;;;;45.38;12.52;;;;;;;;;;5012813;28;20048;-71
2024/03/30 08:45:06;;;;;;;71.38;15.43;;;;;;;;;;5012490;28;20068;-71
2024/03/30 08:48:14;;;;;;;59.15;15.40;;;22.90;77.90;;;;;;5012256;28;20041;-70
2024/03/30 08:51:18;;;;;;;52.00;12.75;;;;;;;;;;5012445;28;20048;-69
2024/03/30 08:54:23;;;;;;;59.35;13.73;;;;;;;;;;5012407;28;20517;-68
2024/03/30 08:57:27;;;;;;;49.05;12.32;;;;;;;;;;5012350;28;20037;-72
2024/03/30 09:00:31;;;;;;;45.25;11.52;;;;;;;;;;5012220;28;20524;-68
2024/03/30 09:03:37;;;;;;;40.78;10.90;;;26.40;74.90;;;;;;5012253;28;20049;-69
2024/03/30 09:06:41;;;;;;;62.13;10.85;;;23.40;70.70;;;;;;5011976;28;20048;-69
2024/03/30 09:09:45;;;;;;;38.40;9.75;;;23.40;71.50;;;;;;5010685;28;20418;-67
2024/03/30 09:12:49;;;;;;;36.53;9.40;;;23.50;71.40;;;;;;5012061;28;20045;-68
2024/03/30 09:15:54;;;;;;;36.40;8.23;;;25.00;72.90;;;;;;5011916;28;20072;-68
2024/03/30 09:18:58;;;;;;;57.10;8.20;;;25.00;66.70;;;;;;5011379;28;20108;-68
2024/03/30 09:22:04;;;;;;;52.60;5.93;;;23.70;61.60;;;;;;5012055;28;20052;-68
2024/03/30 09:25:19;;;;;;;52.00;6.15;;;;;;;;;;5011832;28;20057;-67
2024/03/30 09:28:23;;;;;;;41.90;5.93;;;;;;;;;;4999770;28;20399;-72
2024/03/30 09:31:27;;;;;;;55.25;6.82;;;;;;;;;;5012154;28;20504;-72
2024/03/30 09:34:32;;;;;;;47.15;5.55;;;;;;;;;;5010776;28;20057;-72
2024/03/30 09:37:37;;;;;;;55.92;6.03;;;;;;;;;;5011018;28;20064;-72
2024/03/30 09:40:50;;;;;;;41.30;6.15;;;24.10;58.10;;;;;;5011072;28;20502;-72
2024/03/30 09:43:58;;;;;;;37.70;6.10;;;;;;;;;;5010790;28;20053;-72
2024/03/30 09:47:06;;;;;;;45.55;5.65;;;24.30;57.20;;;;;;5010854;28;20044;-72
2024/03/30 09:50:11;;;;;;;42.65;5.97;;;;;;;;;;5011099;28;20057;-72
2024/03/30 09:53:17;;;;;;;36.00;6.72;;;23.30;56.00;;;;;;5011231;28;20045;-71
2024/03/30 09:56:25;;;;;;;41.85;5.65;;;23.90;56.70;;;;;;5011134;28;20057;-71
2024/03/30 09:59:29;;;;;;;36.80;4.85;;;;;;;;;;4999180;28;20057;-71
2024/03/30 10:02:34;;;;;;;38.83;5.88;;;;;;;;;;5011290;28;20041;-72
2024/03/30 10:05:40;;;;;;;36.70;5.57;;;24.70;56.30;;;;;;5010902;28;20045;-71
2024/03/30 10:08:47;;;;;;;31.92;5.20;;;25.00;57.10;;;;;;5010905;28;20061;-72
2024/03/30 10:12:13;;;;;;;36.40;4.78;;;24.80;54.60;;;;;;5010863;28;20512;-71
2024/03/30 10:15:23;;;;;;;39.42;4.50;;;25.70;53.00;;;;;;5010908;28;20052;-71
2024/03/30 10:18:27;;;;;;;24.23;4.65;;;24.80;54.40;;;;;;4998302;28;20045;-72
2024/03/30 10:21:31;;;;;;;29.55;3.72;;;25.00;53.90;;;;;;5010991;28;20072;-72
2024/03/30 10:24:36;;;;;;;34.60;4.63;;;;;;;;;;5010665;28;20041;-72
2024/03/30 10:27:40;;;;;;;32.80;4.68;;;23.90;53.60;;;;;;5010553;28;20052;-71
2024/03/30 10:30:44;;;;;;;33.33;5.13;;;24.90;53.30;;;;;;5014284;28;20465;-71
2024/03/30 10:33:52;;;;;;;45.15;5.95;;;;;;;;;;5014791;28;20052;-71
2024/03/30 10:36:57;;;;;;;32.33;4.72;;;25.00;53.70;;;;;;5014819;28;20037;-72
2024/03/30 10:40:08;;;;;;;27.73;5.05;;;25.10;53.10;;;;;;5014342;28;20045;-71
2024/03/30 10:43:12;;;;;;;29.90;5.05;;;;;;;;;;5014407;28;20061;-72
2024/03/30 10:46:17;;;;;;;36.38;5.80;;;;;;;;;;5014578;28;20049;-72
2024/03/30 10:49:23;;;;;;;26.67;5.22;;;24.80;53.40;;;;;;5014992;28;20048;-72
2024/03/30 10:52:28;;;;;;;31.33;4.43;;;;;;;;;;5014543;28;20041;-73
2024/03/30 10:55:39;;;;;;;40.20;4.93;;;25.60;51.70;;;;;;5014478;28;20061;-72
2024/03/30 10:58:45;;;;;;;33.00;5.22;;;25.40;51.80;;;;;;5014691;28;20037;-72
2024/03/30 11:01:52;;;;;;;33.00;4.35;;;29.50;53.90;;;;;;5014290;28;20064;-72
2024/03/30 11:04:58;;;;;;;34.83;4.82;;;25.30;51.30;;;;;;5014318;28;20049;-72
2024/03/30 11:08:03;;;;;;;36.63;6.03;;;24.10;51.00;;;;;;5014421;28;20049;-72
2024/03/30 11:11:07;;;;;;;33.92;4.78;;;24.40;51.70;;;;;;5014188;28;20509;-72
2024/03/30 11:14:11;;;;;;;35.45;4.85;;;;;;;;;;5001990;28;20061;-72
2024/03/30 11:17:29;;;;;;;42.90;4.90;;;25.10;52.50;;;;;;5014173;28;20057;-72
2024/03/30 11:21:21;;;;;;;30.00;4.63;;;25.20;50.40;;;;;;5014075;28;20068;-72
2024/03/30 11:24:30;;;;;;;28.38;4.47;;;24.90;51.10;;;;;;4999228;28;20045;-72
2024/03/30 11:27:47;;;;;;;22.98;3.55;;;24.80;50.60;;;;;;5014065;28;20049;-72
2024/03/30 11:30:55;;;;;;;23.13;3.40;;;24.90;51.10;;;;;;5014138;28;20041;-73
2024/03/30 11:34:04;;;;;;;25.10;4.50;;;24.90;51.30;;;;;;5013851;28;20044;-73
2024/03/30 11:37:14;;;;;;;25.42;3.40;;;24.80;50.90;;;;;;5013786;28;20048;-73
2024/03/30 11:40:59;;;;;;;25.63;3.30;;;24.80;51.80;;;;;;5013894;28;20040;-72
2024/03/30 11:44:13;;;;;;;21.95;3.10;;;24.80;50.50;;;;;;4933654;29;20092;-73
2024/03/30 11:47:18;;;;;;;21.08;2.67;;;;;;;;;;4939047;28;20043;-72
2024/03/30 11:50:23;;;;;;;20.10;2.38;;;;;;;;;;5013881;28;20065;-72
2024/03/30 11:53:35;;;;;;;13.65;2.47;;;24.50;49.20;;;;;;5013292;28;20147;-72
2024/03/30 11:56:39;;;;;;;16.10;2.20;;;;;;;;;;5013723;28;20049;-73
2024/03/30 11:59:48;;;;;;;16.63;2.30;;;24.60;50.40;;;;;;5001437;28;20053;-73
2024/03/30 12:03:05;;;;;;;16.52;3.05;;;24.70;50.10;;;;;;5013480;28;20390;-72
2024/03/30 12:06:19;;;;;;;11.20;2.15;;;26.60;50.30;;;;;;5013648;28;20064;-72
2024/03/30 12:09:28;;;;;;;25.80;2.10;;;24.70;49.20;;;;;;5001256;28;20041;-72
2024/03/30 12:12:36;;;;;;;16.42;2.60;;;24.70;49.30;;;;;;5013224;28;20057;-72
2024/03/30 12:15:40;;;;;;;15.32;1.88;;;;;;;;;;5013198;28;20053;-72
2024/03/30 12:18:45;;;;;;;11.20;1.60;;;;;;;;;;5013022;28;20061;-71
2024/03/30 12:21:49;;;;;;;22.13;2.00;;;24.60;50.90;;;;;;5012725;28;20045;-72
2024/03/30 12:24:54;;;;;;;12.38;1.85;;;24.60;48.50;;;;;;5012932;28;20041;-71
2024/03/30 12:27:59;;;;;;;19.98;2.03;;;;;;;;;;5000632;28;20048;-71
2024/03/30 12:31:03;;;;;;;19.88;2.47;;;24.70;48.50;;;;;;5013012;28;20041;-71
2024/03/30 12:34:08;;;;;;;16.13;1.85;;;;;;;;;;5001150;28;20045;-72
2024/03/30 12:37:16;;;;;;;9.45;2.08;;;24.70;49.30;;;;;;5012747;28;20048;-72
2024/03/30 12:40:20;;;;;;;12.20;2.65;;;;;;;;;;5012826;28;20064;-71
2024/03/30 12:43:25;;;;;;;5.68;1.73;;;;;;;;;;5012762;28;20057;-72
2024/03/30 12:46:36;;;;;;;12.32;1.70;;;24.80;48.40;;;;;;5000863;28;20042;-72
2024/03/30 12:49:40;;;;;;;22.27;2.50;;;;;;;;;;5014098;28;20050;-71
2024/03/30 12:52:46;;;;;;;19.50;2.53;;;21.20;46.50;;;;;;5012542;28;20045;-71
2024/03/30 12:55:50;;;;;;;22.02;2.50;;;;;;;;;;5015413;28;20064;-72
2024/03/30 12:58:55;;;;;;;20.35;2.35;;;23.20;48.30;;;;;;5019677;28;20106;-71
2024/03/30 13:02:03;;;;;;;14.80;2.85;;;24.50;48.30;;;;;;5017344;28;20378;-72
2024/03/30 13:05:10;;;;;;;24.38;2.60;;;24.30;48.70;;;;;;5014105;28;20052;-72
2024/03/30 13:08:15;;;;;;;17.60;2.65;;;24.60;50.00;;;;;;5021341;28;20045;-71
2024/03/30 13:11:23;;;;;;;14.70;2.38;;;24.60;49.10;;;;;;5013709;28;20041;-71
2024/03/30 13:14:27;;;;;;;21.55;3.08;;;;;;;;;;5012372;28;20068;-72
2024/03/30 13:17:31;;;;;;;16.02;2.20;;;;;;;;;;5011519;28;20049;-72
2024/03/30 13:20:40;;;;;;;22.25;2.90;;;24.70;51.50;;;;;;5013702;28;20053;-72
2024/03/30 13:23:45;;;;;;;27.92;4.53;;;;;;;;;;5000255;28;20121;-72
2024/03/30 13:26:50;;;;;;;25.30;3.08;;;;;;;;;;5011633;28;20053;-72
2024/03/30 13:29:54;;;;;;;17.90;2.50;;;;;;;;;;4999831;28;20505;-71
2024/03/30 13:32:58;;;;;;;30.00;4.80;;;;;;;;;;5011670;28;20053;-71
2024/03/30 13:36:03;;;;;;;26.92;3.97;;;;;;;;;;5011466;28;20061;-72
2024/03/30 13:39:07;;;;;;;26.02;3.13;;;;;;;;;;5011446;28;20045;-71
2024/03/30 13:42:11;;;;;;;19.63;3.63;;;;;;;;;;5011659;28;20044;-72
2024/03/30 13:45:16;;;;;;;19.65;2.67;;;;;;;;;;5011450;28;20052;-71
2024/03/30 13:48:20;;;;;;;19.75;3.33;;;;;;;;;;4999458;28;20064;-72
2024/03/30 13:51:25;;;;;;;20.02;3.33;;;;;;;;;;5011506;28;20518;-71
2024/03/30 13:54:29;;;;;;;16.40;2.60;;;;;;;;;;5011555;28;20045;-71
2024/03/30 13:57:34;;;;;;;22.77;3.45;;;;;;;;;;5011362;28;20049;-71
2024/03/30 14:00:40;;;;;;;21.88;3.15;;;;;;;;;;5011255;28;20501;-73
2024/03/30 14:03:44;;;;;;;20.45;3.25;;;;;;;;;;5011044;28;20056;-73
2024/03/30 14:06:48;;;;;;;17.00;3.05;;;;;;;;;;5010943;28;20041;-72
2024/03/30 14:09:53;;;;;;;26.40;3.00;;;;;;;;;;5011345;28;20049;-73
2024/03/30 14:12:57;;;;;;;28.83;4.07;;;;;;;;;;5011510;28;20049;-73
2024/03/30 14:16:01;;;;;;;31.45;3.17;;;;;;;;;;5010880;28;20057;-73
2024/03/30 14:19:06;;;;;;;29.20;3.05;;;;;;;;;;5011205;28;20045;-73
2024/03/30 14:22:10;;;;;;;33.17;3.60;;;;;;;;;;5011116;28;20611;-71
2024/03/30 14:25:14;;;;;;;39.30;4.47;;;;;;;;;;5010301;28;20045;-72
2024/03/30 14:28:18;;;;;;;30.30;3.17;;;;;;;;;;5010825;28;20450;-72
2024/03/30 14:31:23;;;;;;;22.90;3.22;;;;;;;;;;5011182;28;20068;-72
2024/03/30 14:34:27;;;;;;;23.05;3.75;;;;;;;;;;5010699;28;20041;-71
2024/03/30 14:37:31;;;;;;;17.10;2.67;;;;;;;;;;5010768;28;20050;-72
2024/03/30 14:40:36;;;;;;;17.10;3.72;;;;;;;;;;5011089;28;20049;-72
2024/03/30 14:43:40;;;;;;;21.35;2.72;;;;;;;;;;5009666;28;20065;-72
2024/03/30 14:46:45;;;;;;;24.48;2.83;;;;;;;;;;5010608;28;20049;-71
2024/03/30 14:49:49;;;;;;;15.38;2.08;;;;;;;;;;5010650;28;20041;-72
2024/03/30 14:52:54;;;;;;;17.75;3.13;;;;;;;;;;5010820;28;20040;-72
2024/03/30 14:56:00;;;;;;;16.30;4.15;;;;;;;;;;5010248;28;20065;-72
2024/03/30 14:59:04;;;;;;;28.42;3.88;;;;;;;;;;5009813;28;20045;-71
2024/03/30 15:02:08;;;;;;;28.48;3.28;;;;;;;;;;4998709;28;20211;-74
2024/03/30 15:05:15;;;;;;;23.70;3.22;;;;;;;;;;4998759;28;20497;-71
2024/03/30 15:08:19;;;;;;;20.88;3.40;;;;;;;;;;5010439;28;20053;-72
2024/03/30 15:11:23;;;;;;;30.27;3.97;;;;;;;;;;5010330;28;20489;-72
2024/03/30 15:14:27;;;;;;;15.65;2.42;;;;;;;;;;5010397;28;20061;-72
2024/03/30 15:17:31;;;;;;;24.45;3.15;;;;;;;;;;5013117;28;20057;-72
2024/03/30 15:20:36;;;;;;;21.08;3.63;;;;;;;;;;5013176;28;20045;-72
2024/03/30 15:23:45;;;;;;;18.05;3.10;;;;;;;;;;5013585;28;20049;-72
2024/03/30 15:27:02;;;;;;;26.83;3.13;;;23.30;58.10;;;;;;5013707;28;20041;-72
2024/03/30 15:33:30;;;;;;;32.10;4.38;;;;;;;;;;5013811;28;20508;-72
2024/03/30 15:36:34;;;;;;;26.50;4.50;;;;;;;;;;5013214;28;20386;-73
2024/03/30 15:39:39;;;;;;;23.38;4.60;;;;;;;;;;5013561;28;20402;-72
2024/03/30 15:42:43;;;;;;;34.00;5.93;;;;;;;;;;5013304;28;20048;-73
2024/03/30 15:45:58;;;;;;;22.52;4.47;;;23.10;59.10;;;;;;5013324;28;20151;-71
2024/03/30 15:49:02;;;;;;;24.48;3.72;;;;;;;;;;5013374;28;20053;-72
2024/03/30 15:52:06;;;;;;;28.05;4.55;;;;;;;;;;5001119;28;20049;-72
2024/03/30 15:55:13;;;;;;;30.23;4.35;;;22.00;60.10;;;;;;5013111;28;20426;-72
2024/03/30 15:58:27;;;;;;;23.75;4.47;;;24.10;62.00;;;;;;5000975;28;20041;-72
2024/03/30 16:01:32;;;;;;;22.75;4.20;;;;;;;;;;5013012;28;20049;-72
2024/03/30 16:04:36;;;;;;;25.83;4.43;;;;;;;;;;5013386;28;20508;-72
2024/03/30 16:07:41;;;;;;;21.48;3.97;;;;;;;;;;5013165;28;20627;-72
2024/03/30 16:10:54;;;;;;;24.23;4.15;;;22.90;62.60;;;;;;5012695;28;20045;-73
2024/03/30 16:13:59;;;;;;;25.40;3.50;;;;;;;;;;5013296;28;20045;-72
2024/03/30 16:17:04;;;;;;;26.05;3.35;;;;;;;;;;5013117;28;20103;-73
2024/03/30 16:20:09;;;;;;;20.08;3.33;;;23.50;63.10;;;;;;5012731;28;20060;-72
2024/03/30 16:23:13;;;;;;;19.75;3.85;;;22.20;62.10;;;;;;5012689;28;20052;-71
2024/03/30 16:26:18;;;;;;;26.40;3.70;;;;;;;;;;5012749;28;20061;-72
2024/03/30 16:29:23;;;;;;;20.20;3.80;;;;;;;;;;5012264;28;20076;-72
2024/03/30 16:32:27;;;;;;;26.40;3.38;;;;;;;;;;5012693;28;20493;-72
2024/03/30 16:35:32;;;;;;;20.05;4.53;;;22.60;63.20;;;;;;5012329;28;20053;-72
2024/03/30 16:38:36;;;;;;;14.93;3.85;;;;;;;;;;5012438;28;20049;-73
2024/03/30 16:41:40;;;;;;;20.27;3.97;;;;;;;;;;5012402;28;20056;-72
2024/03/30 16:44:47;;;;;;;24.17;4.53;;;21.00;62.30;;;;;;5012109;28;20064;-72
2024/03/30 16:47:55;;;;;;;23.63;4.22;;;21.90;62.80;;;;;;5012158;28;20045;-71
2024/03/30 16:51:00;;;;;;;27.27;4.40;;;;;;;;;;5012446;28;20485;-72
2024/03/30 16:54:04;;;;;;;23.75;4.25;;;;;;;;;;5000213;28;20048;-73
2024/03/30 16:57:09;;;;;;;36.60;6.15;;;;;;;;;;5011971;28;20525;-72
2024/03/30 17:00:13;;;;;;;19.27;4.40;;;;;;;;;;5011841;28;20037;-72
2024/03/30 17:03:18;;;;;;;22.23;3.58;;;;;;;;;;5012221;28;20053;-72
2024/03/30 17:06:22;;;;;;;20.75;3.50;;;;;;;;;;5011554;28;20652;-72
2024/03/30 17:09:26;;;;;;;23.77;3.67;;;;;;;;;;5011579;28;20052;-72
2024/03/30 17:12:35;;;;;;;31.45;3.45;;;;;;;;;;4999721;28;20474;-72
2024/03/30 17:15:40;;;;;;;22.33;3.35;;;;;;;;;;5011533;28;20061;-72
2024/03/30 17:18:46;;;;;;;23.30;4.05;;;;;;;;;;5011865;28;20394;-72
2024/03/30 17:21:50;;;;;;;30.25;4.35;;;;;;;;;;5012146;28;20053;-72
2024/03/30 17:24:56;;;;;;;20.38;3.67;;;;;;;;;;5011384;28;20128;-72
2024/03/30 17:28:01;;;;;;;24.45;3.60;;;;;;;;;;5011182;28;20044;-72
2024/03/30 17:31:07;;;;;;;28.67;4.03;;;;;;;;;;5011543;28;20045;-72
2024/03/30 17:34:11;;;;;;;28.33;4.40;;;;;;;;;;5011640;28;20072;-72
2024/03/30 17:37:15;;;;;;;23.50;3.85;;;;;;;;;;5011808;28;20048;-70